Time;durP1;ratioP1;P1;durP2;ratioP2;P2;SDS_P1;SDS_P2;PMS_P1;PMS_P2;Temp;Humidity;BMP_temperature;BMP_pressure;BME280_temperature;BME280_humidity;BME280_pressure;Samples;Min_cycle;Max_cycle;Signal;HPM_P1;HPM_P2
2021/12/22 00:02:26;;;;;;;9.57;8.00;;;;;;;;;;5049222;28;20053;-71
2021/12/22 00:04:54;;;;;;;10.00;8.25;;;;;;;;;;5034830;28;20142;-72
2021/12/22 00:07:22;;;;;;;11.65;8.27;;;;;;;;;;5034047;28;20037;-73
2021/12/22 00:09:49;;;;;;;13.50;8.75;;;;;;;;;;5034427;28;20033;-73
2021/12/22 00:12:17;;;;;;;13.73;8.65;;;;;;;;;;5034757;28;20045;-71
2021/12/22 00:14:44;;;;;;;12.30;8.32;;;;;;;;;;5017301;28;20040;-73
2021/12/22 00:17:12;;;;;;;15.00;9.13;;;;;;;;;;5034591;28;20057;-73
2021/12/22 00:19:39;;;;;;;10.38;8.88;;;;;;;;;;5034528;28;20045;-71
2021/12/22 00:22:07;;;;;;;12.80;8.70;;;;;;;;;;5015353;28;20128;-73
2021/12/22 00:24:34;;;;;;;10.70;8.60;;;;;;;;;;5034374;28;20129;-74
2021/12/22 00:27:03;;;;;;;10.55;8.35;;;;;;;;;;5034708;28;20045;-73
2021/12/22 00:29:31;;;;;;;10.20;8.77;;;;;;;;;;5034894;28;20049;-71
2021/12/22 00:32:13;;;;;;;8.60;7.75;;;;;;;;;;5034362;28;20042;-72
2021/12/22 00:34:47;;;;;;;11.83;8.63;;;;;;;;;;5016173;28;20394;-72
2021/12/22 00:37:15;;;;;;;13.98;8.18;;;;;;;;;;5016695;28;20041;-70
2021/12/22 00:39:44;;;;;;;10.88;8.13;;;;;;;;;;5034239;28;20068;-73
2021/12/22 00:42:12;;;;;;;9.88;8.40;;;;;;;;;;5033978;28;20061;-71
2021/12/22 00:44:41;;;;;;;13.05;7.72;;;;;;;;;;5033908;28;20105;-71
2021/12/22 00:47:09;;;;;;;11.73;8.13;;;;;;;;;;5016267;28;20081;-72
2021/12/22 00:49:37;;;;;;;12.88;7.78;;;;;;;;;;5033997;28;20042;-70
2021/12/22 00:52:05;;;;;;;13.30;7.90;;;;;;;;;;5016489;28;20504;-73
2021/12/22 00:54:33;;;;;;;14.65;7.55;;;;;;;;;;5033694;28;20046;-75
2021/12/22 00:57:05;;;;;;;10.52;7.72;;;;;;;;;;5053384;28;20059;-73
2021/12/22 00:59:35;;;;;;;14.30;9.02;;;;;;;;;;5054143;28;20044;-72
2021/12/22 01:02:06;;;;;;;12.80;8.98;;;;;;;;;;5053281;28;20480;-72
2021/12/22 01:04:34;;;;;;;10.95;8.13;;;;;;;;;;5053841;28;20041;-71
2021/12/22 01:07:02;;;;;;;9.90;7.47;;;;;;;;;;5035698;28;20408;-73
2021/12/22 01:09:29;;;;;;;10.15;7.00;;;;;;;;;;5035283;28;20045;-72
2021/12/22 01:11:57;;;;;;;8.40;7.05;;;;;;;;;;5053591;28;20041;-73
2021/12/22 01:14:25;;;;;;;11.02;7.28;;;;;;;;;;5053502;28;20041;-73
2021/12/22 01:16:59;;;;;;;12.02;8.07;;;;;;;;;;5053242;28;20044;-72
2021/12/22 01:19:59;;;;;;;9.85;7.65;;;;;;;;;;5053390;28;20040;-70
2021/12/22 01:22:47;;;;;;;9.85;8.00;;;;;;;;;;5052955;28;20544;-72
2021/12/22 01:25:19;;;;;;;11.95;7.38;;;;;;;;;;5053190;28;20135;-73
2021/12/22 01:27:47;;;;;;;8.65;6.65;;;;;;;;;;5053012;28;20044;-73
2021/12/22 01:30:23;;;;;;;8.95;6.65;;;;;;;;;;5035351;28;20496;-71
2021/12/22 01:32:51;;;;;;;8.98;5.95;;;;;;;;;;5052697;28;20518;-71
2021/12/22 01:35:20;;;;;;;6.82;5.22;;;;;;;;;;5053221;28;20037;-73
2021/12/22 01:37:47;;;;;;;6.07;5.05;;;;;;;;;;5053041;28;20041;-72
2021/12/22 01:40:15;;;;;;;5.75;4.55;;;;;;;;;;5053336;28;20041;-70
2021/12/22 01:42:43;;;;;;;6.43;4.57;;;;;;;;;;5053240;28;20045;-72
2021/12/22 01:45:31;;;;;;;5.38;4.10;;;;;;;;;;5052337;28;20048;-72
2021/12/22 01:50:47;;;;;;;5.90;4.00;;;;;;;;;;5052840;28;20065;-73
2021/12/22 01:53:20;;;;;;;6.05;3.50;;;;;;;;;;5053017;28;20048;-73
2021/12/22 01:56:05;;;;;;;9.13;3.78;;;;;;;;;;5052663;28;20069;-74
2021/12/22 01:58:33;;;;;;;5.75;3.50;;;;;;;;;;5034737;28;20076;-72
2021/12/22 02:01:01;;;;;;;7.38;3.97;;;;;;;;;;5052825;28;20048;-72
2021/12/22 02:03:30;;;;;;;5.47;4.10;;;;;;;;;;5051607;28;20051;-72
2021/12/22 02:05:57;;;;;;;8.32;4.30;;;;;;;;;;5052490;28;20095;-72
2021/12/22 02:08:26;;;;;;;10.70;4.50;;;;;;;;;;5035095;28;20052;-70
2021/12/22 02:10:53;;;;;;;8.63;4.60;;;;;;;;;;5052396;28;20048;-71
2021/12/22 02:13:27;;;;;;;6.93;4.45;;;;;;;;;;5034916;28;20048;-72
2021/12/22 02:15:55;;;;;;;6.40;4.35;;;;;;;;;;5052813;28;20443;-73
2021/12/22 02:18:23;;;;;;;7.82;4.30;;;;;;;;;;5052772;28;20048;-72
2021/12/22 02:20:51;;;;;;;7.18;4.45;;;;;;;;;;5052316;28;20087;-71
2021/12/22 02:23:18;;;;;;;6.32;4.30;;;;;;;;;;5052466;28;20045;-72
2021/12/22 02:25:58;;;;;;;5.63;4.47;;;;;;;;;;5052599;28;20082;-72
2021/12/22 02:28:30;;;;;;;5.70;4.25;;;;;;;;;;5034335;28;20453;-72
2021/12/22 02:30:58;;;;;;;8.48;4.45;;;;;;;;;;5035119;28;20068;-72
2021/12/22 02:33:37;;;;;;;6.85;4.60;;;;;;;;;;5052381;28;20045;-71
2021/12/22 02:38:36;;;;;;;6.88;4.72;;;;;;;;;;5052537;28;20097;-71
2021/12/22 02:41:04;;;;;;;8.82;4.43;;;;;;;;;;5052322;28;20408;-71
2021/12/22 02:43:33;;;;;;;6.35;4.03;;;;;;;;;;5052554;28;20041;-72
2021/12/22 02:46:01;;;;;;;6.68;3.88;;;;;;;;;;5054879;28;20052;-72
2021/12/22 02:48:30;;;;;;;5.95;4.10;;;;;;;;;;5056438;28;20115;-73
2021/12/22 02:51:00;;;;;;;7.40;4.75;;;;;;;;;;5056425;28;20045;-72
2021/12/22 02:53:42;;;;;;;7.28;4.28;;;;;;;;;;5056080;28;20112;-70
2021/12/22 02:56:38;;;;;;;6.60;4.05;;;;;;;;;;5056335;28;20408;-70
2021/12/22 03:04:45;;;;;;;12.85;4.18;;;;;;;;;;5022330;28;20067;-72
2021/12/22 03:07:16;;;;;;;7.93;4.50;;;;;;;;;;5055821;28;20048;-73
2021/12/22 03:09:44;;;;;;;9.05;4.50;;;;;;;;;;5055484;28;20124;-72
2021/12/22 03:12:14;;;;;;;6.15;4.47;;;;;;;;;;5037894;28;20040;-72
2021/12/22 03:14:41;;;;;;;7.32;4.30;;;;;;;;;;5055572;28;20140;-72
2021/12/22 03:17:09;;;;;;;9.25;4.78;;;;;;;;;;5055973;28;20041;-71
2021/12/22 03:19:37;;;;;;;9.35;4.65;;;;;;;;;;5055573;28;20056;-73
2021/12/22 03:22:09;;;;;;;6.45;4.55;;;;;;;;;;5055301;28;20052;-71
2021/12/22 03:24:38;;;;;;;7.07;4.22;;;;;;;;;;5055480;28;20082;-70
2021/12/22 03:27:07;;;;;;;8.82;4.40;;;;;;;;;;5055445;28;20634;-72
2021/12/22 03:29:36;;;;;;;7.40;4.43;;;;;;;;;;5055322;28;20123;-71
2021/12/22 03:32:04;;;;;;;8.68;4.38;;;;;;;;;;5037592;28;20378;-71
2021/12/22 03:34:31;;;;;;;12.35;4.47;;;;;;;;;;5055050;28;20048;-73
2021/12/22 03:37:01;;;;;;;7.03;4.07;;;;;;;;;;5055361;28;20119;-71
2021/12/22 03:39:29;;;;;;;9.55;4.20;;;;;;;;;;5055323;28;20488;-71
2021/12/22 03:41:56;;;;;;;6.13;4.03;;;;;;;;;;5037406;28;20048;-73
2021/12/22 03:44:25;;;;;;;6.60;4.30;;;;;;;;;;5055177;28;20111;-73
2021/12/22 03:46:52;;;;;;;7.18;4.15;;;;;;;;;;5036966;28;20061;-73
2021/12/22 03:49:20;;;;;;;5.38;3.75;;;;;;;;;;5054935;28;20045;-72
2021/12/22 03:51:48;;;;;;;8.40;4.25;;;;;;;;;;5055228;28;20041;-72
2021/12/22 03:54:16;;;;;;;5.53;3.92;;;;;;;;;;5054900;28;20124;-73
2021/12/22 03:56:43;;;;;;;6.13;4.32;;;;;;;;;;5054916;28;20048;-73
2021/12/22 03:59:11;;;;;;;8.75;3.97;;;;;;;;;;5054704;28;20044;-71
2021/12/22 04:01:39;;;;;;;11.60;4.00;;;;;;;;;;5036955;28;20071;-72
2021/12/22 04:04:13;;;;;;;5.07;3.72;;;;;;;;;;5054838;28;20493;-73
2021/12/22 04:06:42;;;;;;;9.82;4.10;;;;;;;;;;5043705;28;20042;-74
2021/12/22 04:09:10;;;;;;;4.97;3.50;;;;;;;;;;5034483;28;20037;-72
2021/12/22 04:11:37;;;;;;;8.38;3.75;;;;;;;;;;5034682;28;20537;-74
2021/12/22 04:14:05;;;;;;;5.25;3.88;;;;;;;;;;5034780;28;20041;-72
2021/12/22 04:16:33;;;;;;;10.35;4.03;;;;;;;;;;5034847;28;20042;-71
2021/12/22 04:19:01;;;;;;;7.65;4.18;;;;;;;;;;5034541;28;20041;-72
2021/12/22 04:21:29;;;;;;;6.60;3.70;;;;;;;;;;5034571;28;20049;-72
2021/12/22 04:24:00;;;;;;;6.18;3.78;;;;;;;;;;5034596;28;20041;-71
2021/12/22 04:26:31;;;;;;;3.97;3.63;;;;;;;;;;5034569;28;20046;-74
2021/12/22 04:28:59;;;;;;;6.72;3.55;;;;;;;;;;5034439;28;20067;-70
2021/12/22 04:31:26;;;;;;;7.40;4.00;;;;;;;;;;5033237;28;20038;-73
2021/12/22 04:33:54;;;;;;;6.55;3.70;;;;;;;;;;5034397;28;20120;-72
2021/12/22 04:36:21;;;;;;;7.10;3.88;;;;;;;;;;5016476;28;20420;-71
2021/12/22 04:38:49;;;;;;;7.85;3.70;;;;;;;;;;5016605;28;20065;-70
2021/12/22 04:41:16;;;;;;;7.45;3.70;;;;;;;;;;5034267;28;20049;-73
2021/12/22 04:43:44;;;;;;;5.10;3.47;;;;;;;;;;5034121;28;20050;-72
2021/12/22 04:46:12;;;;;;;7.07;3.50;;;;;;;;;;5016044;28;20092;-70
2021/12/22 04:48:40;;;;;;;5.03;3.60;;;;;;;;;;5034086;28;20048;-72
2021/12/22 04:51:14;;;;;;;4.63;3.35;;;;;;;;;;5033938;28;20040;-74
2021/12/22 04:53:57;;;;;;;5.75;3.22;;;;;;;;;;5032635;28;20037;-72
2021/12/22 04:56:26;;;;;;;7.53;3.40;;;;;;;;;;5034047;28;20072;-72
2021/12/22 04:58:53;;;;;;;5.85;3.35;;;;;;;;;;5015948;28;20048;-70
2021/12/22 05:01:21;;;;;;;7.80;3.05;;;;;;;;;;5033921;28;20045;-72
2021/12/22 05:03:49;;;;;;;4.25;2.97;;;;;;;;;;5033755;28;20037;-73
2021/12/22 05:06:16;;;;;;;4.95;2.67;;;;;;;;;;5033646;28;20041;-74
2021/12/22 05:08:44;;;;;;;6.50;3.33;;;;;;;;;;5033098;28;20486;-72
2021/12/22 05:11:11;;;;;;;5.63;2.70;;;;;;;;;;5033191;28;20042;-72
2021/12/22 05:13:40;;;;;;;5.20;2.95;;;;;;;;;;5033537;28;20041;-73
2021/12/22 05:16:15;;;;;;;5.32;2.90;;;;;;;;;;5033671;28;20044;-72
2021/12/22 05:18:52;;;;;;;5.32;3.20;;;;;;;;;;5033501;28;20053;-70
2021/12/22 05:21:21;;;;;;;7.70;3.78;;;;;;;;;;5033187;28;20068;-72
2021/12/22 05:23:52;;;;;;;4.97;3.17;;;;;;;;;;5033538;28;20485;-70
2021/12/22 05:26:20;;;;;;;5.85;2.80;;;;;;;;;;5033288;28;20045;-72
2021/12/22 05:28:48;;;;;;;3.63;2.80;;;;;;;;;;5033343;28;20037;-73
2021/12/22 05:31:15;;;;;;;5.85;2.85;;;;;;;;;;5015893;28;20120;-72
2021/12/22 05:33:43;;;;;;;6.05;3.20;;;;;;;;;;5032967;28;20141;-70
2021/12/22 05:36:10;;;;;;;4.68;3.20;;;;;;;;;;5033248;28;20051;-72
2021/12/22 05:38:38;;;;;;;3.95;3.10;;;;;;;;;;5033205;28;20045;-70
2021/12/22 05:41:05;;;;;;;5.82;3.10;;;;;;;;;;5033475;28;20055;-73
2021/12/22 05:43:33;;;;;;;4.72;2.90;;;;;;;;;;5033132;28;20057;-72
2021/12/22 05:46:01;;;;;;;5.15;3.13;;;;;;;;;;5032823;28;20053;-70
2021/12/22 05:48:28;;;;;;;3.67;2.85;;;;;;;;;;5032964;28;20037;-70
2021/12/22 05:50:58;;;;;;;5.13;3.42;;;;;;;;;;5015341;28;20144;-70
2021/12/22 05:53:26;;;;;;;6.85;3.47;;;;;;;;;;5032746;28;20042;-70
2021/12/22 05:55:53;;;;;;;3.88;2.90;;;;;;;;;;5032938;28;20048;-72
2021/12/22 05:58:21;;;;;;;5.40;2.90;;;;;;;;;;5032674;28;20040;-70
2021/12/22 06:00:49;;;;;;;4.50;3.00;;;;;;;;;;5015430;28;20052;-70
2021/12/22 06:03:17;;;;;;;5.93;2.72;;;;;;;;;;5032793;28;20459;-70
2021/12/22 06:05:44;;;;;;;6.78;3.58;;;;;;;;;;5032917;28;20037;-73
2021/12/22 06:08:12;;;;;;;4.28;3.25;;;;;;;;;;5032606;28;20045;-72
2021/12/22 06:10:40;;;;;;;5.43;3.15;;;;;;;;;;5032569;28;20042;-70
2021/12/22 06:13:09;;;;;;;5.53;3.33;;;;;;;;;;5032780;28;20443;-70
2021/12/22 06:15:37;;;;;;;7.18;3.60;;;;;;;;;;5015029;28;20412;-69
2021/12/22 06:18:06;;;;;;;8.00;3.85;;;;;;;;;;5015301;28;20539;-72
2021/12/22 06:20:34;;;;;;;7.88;3.58;;;;;;;;;;5036860;28;20072;-73
2021/12/22 06:23:02;;;;;;;7.20;3.47;;;;;;;;;;5018519;28;20041;-68
2021/12/22 06:25:34;;;;;;;8.10;3.70;;;;;;;;;;5036646;28;20050;-70
2021/12/22 06:28:02;;;;;;;9.63;3.85;;;;;;;;;;5036770;28;20124;-72
2021/12/22 06:30:30;;;;;;;5.18;3.30;;;;;;;;;;5039480;28;20115;-72
2021/12/22 06:32:57;;;;;;;8.00;3.88;;;;;;;;;;5076036;28;20048;-72
2021/12/22 06:35:25;;;;;;;9.93;4.05;;;;;;;;;;5075686;28;20036;-68
2021/12/22 06:37:52;;;;;;;9.82;4.00;;;;;;;;;;5061182;28;20025;-71
2021/12/22 06:40:20;;;;;;;6.18;3.80;;;;;;;;;;5055468;28;20053;-67
2021/12/22 06:42:47;;;;;;;6.78;4.10;;;;;;;;;;5056252;28;20045;-68
2021/12/22 06:45:15;;;;;;;10.48;3.67;;;;;;;;;;5055725;28;20047;-68
2021/12/22 06:47:43;;;;;;;8.02;4.05;;;;;;;;;;5055808;28;20040;-73
2021/12/22 06:50:11;;;;;;;5.97;4.20;;;;;;;;;;5055922;28;20039;-69
2021/12/22 06:52:38;;;;;;;7.97;4.15;;;;;;;;;;5038332;28;20052;-70
2021/12/22 06:55:06;;;;;;;5.18;3.58;;;;;;;;;;5058260;28;20039;-68
2021/12/22 06:57:34;;;;;;;8.65;4.18;;;;;;;;;;5067635;28;20091;-72
2021/12/22 07:00:03;;;;;;;4.85;3.38;;;;;;;;;;5075214;28;20079;-73
2021/12/22 07:02:35;;;;;;;6.18;3.65;;;;;;;;;;5075544;28;20044;-71
2021/12/22 07:05:07;;;;;;;8.57;3.55;;;;;;;;;;5075705;28;20045;-71
2021/12/22 07:07:35;;;;;;;6.30;3.47;;;;;;;;;;5075668;28;20483;-69
2021/12/22 07:10:07;;;;;;;8.82;4.28;;;;;;;;;;5075040;28;20033;-72
2021/12/22 07:12:48;;;;;;;4.93;3.50;;;;;;;;;;5040963;28;20451;-68
2021/12/22 07:15:19;;;;;;;6.43;3.83;;;;;;;;;;5075456;28;20032;-68
2021/12/22 07:17:48;;;;;;;5.38;3.28;;;;;;;;;;5067681;28;20041;-68
2021/12/22 07:20:16;;;;;;;9.07;3.20;;;;;;;;;;5044795;28;20045;-72
2021/12/22 07:22:44;;;;;;;7.65;3.63;;;;;;;;;;5031298;28;20069;-70
2021/12/22 07:25:13;;;;;;;7.80;3.60;;;;;;;;;;5043238;28;20064;-70
2021/12/22 07:27:41;;;;;;;4.05;3.28;;;;;;;;;;5045236;28;20100;-68
2021/12/22 07:30:09;;;;;;;6.07;3.60;;;;;;;;;;5042157;28;20032;-68
2021/12/22 07:32:36;;;;;;;6.90;3.63;;;;;;;;;;5074718;28;20037;-70
2021/12/22 07:35:07;;;;;;;8.05;3.80;;;;;;;;;;5074320;28;20047;-70
2021/12/22 07:37:38;;;;;;;6.65;3.90;;;;;;;;;;5074598;28;20075;-68
2021/12/22 07:40:24;;;;;;;10.48;5.25;;;;;;;;;;5073628;28;20072;-72
2021/12/22 07:42:52;;;;;;;8.68;4.10;;;;;;;;;;5055678;28;20099;-72
2021/12/22 07:45:20;;;;;;;6.30;4.05;;;;;;;;;;5074257;28;20052;-68
2021/12/22 07:47:47;;;;;;;7.97;4.10;;;;;;;;;;5074539;28;20044;-68
2021/12/22 07:50:15;;;;;;;9.65;4.20;;;;;;;;;;5074412;28;20039;-70
2021/12/22 07:52:42;;;;;;;6.70;3.92;;;;;;;;;;5074657;28;20044;-73
2021/12/22 07:55:10;;;;;;;15.32;5.78;;;;;;;;;;5075082;28;20391;-69
2021/12/22 07:57:37;;;;;;;17.10;5.68;;;;;;;;;;5075649;28;20451;-70
2021/12/22 08:00:06;;;;;;;17.73;4.97;;;;;;;;;;5074575;28;20480;-70
2021/12/22 08:02:39;;;;;;;10.93;4.82;;;;;;;;;;5074566;28;20057;-69
2021/12/22 08:05:09;;;;;;;10.90;4.90;;;;;;;;;;5074747;28;20040;-71
2021/12/22 08:07:37;;;;;;;13.77;4.90;;;;;;;;;;5074932;28;20040;-70
2021/12/22 08:10:06;;;;;;;8.65;3.60;;;;;;;;;;5074724;28;20068;-71
2021/12/22 08:12:33;;;;;;;7.88;3.92;;;;;;;;;;5074800;28;20041;-72
2021/12/22 08:15:01;;;;;;;6.53;3.58;;;;;;;;;;5074936;28;20047;-70
2021/12/22 08:17:30;;;;;;;9.13;3.85;;;;;;;;;;5074880;28;20040;-70
2021/12/22 08:19:59;;;;;;;6.95;4.15;;;;;;;;;;5074989;28;20052;-73
2021/12/22 08:22:27;;;;;;;7.28;3.30;;;;;;;;;;5074139;28;20412;-72
2021/12/22 08:24:55;;;;;;;9.73;4.10;;;;;;;;;;5074178;28;20072;-71
2021/12/22 08:27:22;;;;;;;9.57;4.55;;;;;;;;;;5074596;28;20036;-68
2021/12/22 08:29:51;;;;;;;8.10;5.25;;;;;;;;;;5074474;28;20555;-72
2021/12/22 08:32:18;;;;;;;8.88;5.15;;;;;;;;;;5074349;28;20036;-70
2021/12/22 08:34:48;;;;;;;7.63;5.05;;;;;;;;;;5074101;28;20119;-70
2021/12/22 08:40:01;;;;;;;10.05;5.03;;;;;;;;;;5074088;28;20696;-72
2021/12/22 08:42:28;;;;;;;9.35;4.70;;;;;;;;;;5073235;28;20051;-68
2021/12/22 08:44:56;;;;;;;6.97;4.30;;;;;;;;;;5074447;28;20052;-70
2021/12/22 08:47:23;;;;;;;7.47;4.05;;;;;;;;;;5055812;28;20079;-70
2021/12/22 08:49:51;;;;;;;6.93;4.05;;;;;;;;;;5074320;28;20036;-70
2021/12/22 08:52:18;;;;;;;6.30;3.10;;;;;;;;;;5074322;28;20131;-70
2021/12/22 08:54:46;;;;;;;10.73;3.00;;;;;;;;;;5074164;28;20056;-72
2021/12/22 08:57:13;;;;;;;4.97;2.90;;;;;;;;;;5073939;28;20063;-71
2021/12/22 08:59:41;;;;;;;8.07;3.22;;;;;;;;;;5073830;28;20102;-70
2021/12/22 09:02:08;;;;;;;7.60;3.28;;;;;;;;;;5055957;28;20118;-70
2021/12/22 09:04:36;;;;;;;5.40;2.60;;;;;;;;;;5055638;28;20041;-72
2021/12/22 09:07:04;;;;;;;5.45;2.70;;;;;;;;;;5055646;28;20073;-72
2021/12/22 09:09:32;;;;;;;4.18;2.63;;;;;;;;;;5073663;28;20032;-68
2021/12/22 09:12:00;;;;;;;6.68;3.53;;;;;;;;;;5073398;28;20033;-68
2021/12/22 09:14:27;;;;;;;2.95;2.22;;;;;;;;;;5073798;28;20040;-68
2021/12/22 09:16:55;;;;;;;5.13;2.85;;;;;;;;;;5073538;28;20044;-70
2021/12/22 09:19:23;;;;;;;7.57;2.75;;;;;;;;;;5055549;28;20075;-67
2021/12/22 09:21:51;;;;;;;5.80;2.80;;;;;;;;;;5055202;28;20037;-68
2021/12/22 09:24:19;;;;;;;10.65;5.03;;;;;;;;;;5072962;28;20072;-69
2021/12/22 09:26:47;;;;;;;12.80;5.70;;;;;;;;;;5073005;28;20048;-70
2021/12/22 09:29:14;;;;;;;7.22;5.00;;;;;;;;;;5072835;28;20183;-71
2021/12/22 09:31:42;;;;;;;10.43;5.40;;;;;;;;;;5072688;28;20036;-70
2021/12/22 09:34:09;;;;;;;9.55;5.03;;;;;;;;;;5072718;28;20045;-72
2021/12/22 09:36:37;;;;;;;9.60;4.95;;;;;;;;;;5054628;28;20408;-71
2021/12/22 09:39:04;;;;;;;8.27;4.85;;;;;;;;;;5072826;28;20043;-72
2021/12/22 09:41:33;;;;;;;9.30;4.60;;;;;;;;;;5072543;28;20049;-67
2021/12/22 09:44:01;;;;;;;8.00;5.35;;;;;;;;;;5072343;28;20051;-68
2021/12/22 09:46:29;;;;;;;8.88;5.05;;;;;;;;;;5071856;28;20044;-68
2021/12/22 09:49:07;;;;;;;8.85;4.55;;;;;;;;;;5072271;28;20131;-66
2021/12/22 09:54:05;;;;;;;10.98;6.20;;;;;;;;;;5072216;28;20102;-66
2021/12/22 09:56:33;;;;;;;7.32;2.83;;;;;;;;;;5072389;28;20070;-70
2021/12/22 09:59:01;;;;;;;9.35;3.40;;;;;;;;;;5072032;28;20047;-69
2021/12/22 10:01:29;;;;;;;4.90;3.03;;;;;;;;;;5054508;28;20127;-67
2021/12/22 10:03:58;;;;;;;6.70;3.03;;;;;;;;;;5072512;28;20044;-69
2021/12/22 10:06:27;;;;;;;4.60;2.65;;;;;;;;;;5072449;28;20519;-69
2021/12/22 10:09:00;;;;;;;7.20;3.78;;;;;;;;;;5072618;28;20051;-69
2021/12/22 10:11:33;;;;;;;8.93;3.63;;;;;;;;;;5054402;28;20051;-67
2021/12/22 10:14:01;;;;;;;6.22;4.07;;;;;;;;;;5072314;28;20037;-71
2021/12/22 10:16:29;;;;;;;12.70;4.10;;;;;;;;;;5072423;28;20043;-67
2021/12/22 10:19:07;;;;;;;7.32;4.47;;;;;;;;;;5072325;28;20041;-68
2021/12/22 10:21:37;;;;;;;8.73;4.40;;;;;;;;;;5071952;28;20051;-71
2021/12/22 10:24:06;;;;;;;7.10;4.40;;;;;;;;;;5037260;28;20500;-69
2021/12/22 10:26:36;;;;;;;9.20;4.97;;;;;;;;;;5054596;28;20048;-67
2021/12/22 10:29:06;;;;;;;7.97;3.67;;;;;;;;;;5071805;28;20120;-70
2021/12/22 10:31:34;;;;;;;9.73;3.83;;;;;;;;;;5072259;28;20047;-69
2021/12/22 10:34:07;;;;;;;10.27;3.78;;;;;;;;;;5071621;28;20098;-68
2021/12/22 10:36:46;;;;;;;7.72;3.67;;;;;;;;;;5072185;28;20036;-68
2021/12/22 10:39:22;;;;;;;8.57;3.42;;;;;;;;;;5071849;28;20059;-68
2021/12/22 10:41:50;;;;;;;7.00;3.85;;;;;;;;;;5071527;28;20131;-67
2021/12/22 10:44:18;;;;;;;7.43;3.40;;;;;;;;;;5071105;28;20049;-68
2021/12/22 10:46:49;;;;;;;5.22;3.50;;;;;;;;;;5146003;23;20139;-74
2021/12/22 10:49:21;;;;;;;6.15;3.90;;;;;;;;;;5071536;28;20109;-74
2021/12/22 10:52:01;;;;;;;7.30;5.50;;;;;;;;;;5071537;28;20041;-75
2021/12/22 10:54:36;;;;;;;8.77;4.50;;;;;;;;;;5071251;28;20116;-74
2021/12/22 10:57:11;;;;;;;14.82;6.53;;;;;;;;;;5054028;28;20032;-74
2021/12/22 10:59:47;;;;;;;14.55;6.90;;;;;;;;;;5071196;28;20530;-77
2021/12/22 11:02:24;;;;;;;15.05;7.00;;;;;;;;;;5054096;28;20067;-74
2021/12/22 11:04:52;;;;;;;13.15;7.60;;;;;;;;;;5071615;28;20072;-75
2021/12/22 11:07:22;;;;;;;12.65;7.07;;;;;;;;;;5075048;28;20039;-77
2021/12/22 11:09:51;;;;;;;10.05;6.53;;;;;;;;;;5074801;28;20084;-75
2021/12/22 11:12:33;;;;;;;14.20;7.78;;;;;;;;;;5074763;28;20041;-77
2021/12/22 11:15:02;;;;;;;12.30;7.35;;;;;;;;;;5075517;28;20041;-74
2021/12/22 11:17:29;;;;;;;11.95;6.72;;;;;;;;;;5057167;28;20041;-77
2021/12/22 11:20:01;;;;;;;9.45;6.90;;;;;;;;;;5074697;28;20048;-74
2021/12/22 11:22:51;;;;;;;13.63;6.97;;;;;;;;;;5040301;28;20445;-75
2021/12/22 11:25:19;;;;;;;10.70;7.63;;;;;;;;;;5075001;28;20404;-74
2021/12/22 11:27:47;;;;;;;12.57;7.47;;;;;;;;;;5057114;28;20041;-75
2021/12/22 11:30:19;;;;;;;10.95;7.45;;;;;;;;;;5056522;28;20445;-77
2021/12/22 11:32:47;;;;;;;13.57;7.78;;;;;;;;;;5056811;28;20044;-74
2021/12/22 11:35:16;;;;;;;14.77;7.90;;;;;;;;;;5055889;28;20549;-74
2021/12/22 11:37:44;;;;;;;15.13;7.55;;;;;;;;;;5056642;28;20139;-74
2021/12/22 11:40:17;;;;;;;14.65;7.50;;;;;;;;;;5040186;28;20233;-73
2021/12/22 11:42:45;;;;;;;12.60;7.35;;;;;;;;;;5056696;28;20041;-74
2021/12/22 11:45:14;;;;;;;12.43;7.78;;;;;;;;;;5074527;28;20103;-75
2021/12/22 11:47:46;;;;;;;11.18;7.95;;;;;;;;;;5074285;28;20511;-77
2021/12/22 11:50:19;;;;;;;13.38;7.90;;;;;;;;;;5056564;28;20583;-74
2021/12/22 11:52:55;;;;;;;13.98;8.70;;;;;;;;;;5056552;28;20135;-74
2021/12/22 11:55:24;;;;;;;12.95;7.72;;;;;;;;;;5074111;28;20068;-77
2021/12/22 11:57:54;;;;;;;12.30;6.70;;;;;;;;;;5074904;28;20116;-75
2021/12/22 12:00:27;;;;;;;10.05;5.63;;;;;;;;;;5073879;28;20044;-74
2021/12/22 12:02:56;;;;;;;6.32;4.10;;;;;;;;;;5073967;28;20123;-74
2021/12/22 12:05:26;;;;;;;6.82;4.03;;;;;;;;;;5055994;28;20047;-74
2021/12/22 12:07:54;;;;;;;5.53;2.75;;;;;;;;;;5056158;28;20045;-74
2021/12/22 12:10:40;;;;;;;4.10;2.72;;;;;;;;;;5055437;28;20044;-74
2021/12/22 12:13:20;;;;;;;8.63;3.47;;;;;;;;;;5074002;28;20040;-74
2021/12/22 12:21:49;;;;;;;4.68;2.38;;;;;;;;;;5074145;28;20056;-76
2021/12/22 12:24:31;;;;;;;3.38;2.50;;;;;;;;;;5073830;28;20059;-76
2021/12/22 12:27:00;;;;;;;5.68;3.08;;;;;;;;;;5055135;28;20135;-77
2021/12/22 12:29:46;;;;;;;6.00;3.13;;;;;;;;;;5074137;28;20051;-74
2021/12/22 12:32:32;;;;;;;10.30;3.30;;;;;;;;;;5073618;28;20509;-75
2021/12/22 12:35:26;;;;;;;3.75;2.30;;;;;;;;;;5073664;28;20036;-74
2021/12/22 12:38:12;;;;;;;3.53;1.67;;;;;;;;;;5073551;28;20048;-74
2021/12/22 12:41:09;;;;;;;4.07;1.70;;;;;;;;;;5073902;28;20135;-74
2021/12/22 12:46:37;;;;;;;2.42;2.08;;;;;;;;;;5055846;28;20060;-75
2021/12/22 12:49:08;;;;;;;3.08;2.05;;;;;;;;;;5069970;28;20505;-75
2021/12/22 12:51:41;;;;;;;3.53;1.73;;;;;;;;;;5055450;28;20055;-74
2021/12/22 12:54:08;;;;;;;4.10;1.73;;;;;;;;;;5073496;28;20491;-74
2021/12/22 12:56:37;;;;;;;4.95;1.60;;;;;;;;;;5072774;28;20044;-74
2021/12/22 12:59:11;;;;;;;4.90;1.80;;;;;;;;;;5072660;28;20044;-75
2021/12/22 13:01:45;;;;;;;6.70;2.20;;;;;;;;;;5054966;28;20040;-74
2021/12/22 13:04:23;;;;;;;2.05;1.60;;;;;;;;;;5070337;28;20045;-74
2021/12/22 13:06:51;;;;;;;7.97;1.90;;;;;;;;;;5055078;28;20123;-73
2021/12/22 13:09:24;;;;;;;3.42;2.05;;;;;;;;;;5054640;28;20427;-73
2021/12/22 13:11:59;;;;;;;3.25;2.25;;;;;;;;;;5055538;28;20048;-76
2021/12/22 13:17:23;;;;;;;5.88;2.15;;;;;;;;;;5040690;28;20585;-74
2021/12/22 13:19:55;;;;;;;4.95;2.25;;;;;;;;;;5048718;28;20044;-74
2021/12/22 13:22:30;;;;;;;4.18;1.75;;;;;;;;;;5048431;28;20040;-74
2021/12/22 13:25:12;;;;;;;3.03;1.70;;;;;;;;;;5068453;28;20483;-75
2021/12/22 13:27:40;;;;;;;;;;;;;;;;;;5047524;28;20033;-74
2021/12/22 13:30:11;;;;;;;1.92;1.73;;;;;;;;;;5059297;28;19921;-74
2021/12/22 13:33:00;;;;;;;5.18;2.13;;;;;;;;;;5050035;28;20037;-74
2021/12/22 13:35:31;;;;;;;3.08;1.80;;;;;;;;;;5059187;28;20037;-75
2021/12/22 13:37:59;;;;;;;3.13;1.85;;;;;;;;;;5024390;28;20036;-77
2021/12/22 13:40:33;;;;;;;5.60;2.00;;;;;;;;;;5053211;28;20048;-75
2021/12/22 13:43:01;;;;;;;4.25;2.00;;;;;;;;;;5066325;28;20036;-74
2021/12/22 13:45:29;;;;;;;6.15;2.42;;;;;;;;;;5067869;28;20404;-77
2021/12/22 13:47:58;;;;;;;3.42;1.95;;;;;;;;;;5065514;28;20036;-75
2021/12/22 13:50:26;;;;;;;3.08;1.70;;;;;;;;;;5052337;28;20132;-77
2021/12/22 13:52:54;;;;;;;3.67;1.90;;;;;;;;;;5053259;28;20416;-75
2021/12/22 13:55:22;;;;;;;2.55;1.90;;;;;;;;;;5032824;28;20041;-76
2021/12/22 13:57:52;;;;;;;5.05;2.63;;;;;;;;;;5053527;28;20552;-78
2021/12/22 14:00:20;;;;;;;2.17;1.77;;;;;;;;;;5054169;28;20468;-75
2021/12/22 14:02:48;;;;;;;5.32;1.70;;;;;;;;;;5054309;28;20033;-77
2021/12/22 14:05:20;;;;;;;2.40;1.70;;;;;;;;;;5053050;28;20040;-75
2021/12/22 14:07:49;;;;;;;2.35;2.03;;;;;;;;;;5053880;28;20128;-75
2021/12/22 14:10:17;;;;;;;4.70;1.98;;;;;;;;;;5053190;28;20044;-75
2021/12/22 14:12:45;;;;;;;4.70;1.80;;;;;;;;;;5037194;28;20039;-78
2021/12/22 14:15:13;;;;;;;3.28;1.88;;;;;;;;;;5053972;28;20048;-77
2021/12/22 14:17:43;;;;;;;4.90;1.98;;;;;;;;;;5051332;28;20058;-74
2021/12/22 14:20:22;;;;;;;2.28;1.50;;;;;;;;;;5053797;28;20094;-77
2021/12/22 14:22:58;;;;;;;2.60;1.30;;;;;;;;;;5069886;28;20052;-75
2021/12/22 14:25:28;;;;;;;2.45;1.40;;;;;;;;;;5051775;28;20041;-75
2021/12/22 14:27:58;;;;;;;3.28;1.60;;;;;;;;;;5053518;28;20112;-75
2021/12/22 14:30:44;;;;;;;2.67;1.38;;;;;;;;;;5037340;28;20516;-75
2021/12/22 14:33:12;;;;;;;1.75;1.60;;;;;;;;;;5053778;28;20033;-77
2021/12/22 14:35:42;;;;;;;2.78;1.45;;;;;;;;;;5062468;28;20076;-76
2021/12/22 14:38:22;;;;;;;3.45;1.77;;;;;;;;;;5071507;28;20033;-77
2021/12/22 14:41:00;;;;;;;3.58;1.80;;;;;;;;;;5070715;28;20517;-75
2021/12/22 14:43:38;;;;;;;2.65;1.60;;;;;;;;;;5033863;28;20159;-75
2021/12/22 14:46:07;;;;;;;3.85;1.90;;;;;;;;;;5073610;28;20040;-77
2021/12/22 14:48:45;;;;;;;3.67;1.50;;;;;;;;;;5040537;28;20080;-77
2021/12/22 14:51:23;;;;;;;5.22;2.03;;;;;;;;;;5075714;28;20036;-78
2021/12/22 14:54:01;;;;;;;4.05;1.60;;;;;;;;;;5065455;28;20036;-74
2021/12/22 14:56:49;;;;;;;1.65;1.40;;;;;;;;;;5062491;28;20087;-74
2021/12/22 14:59:17;;;;;;;3.28;1.73;;;;;;;;;;5072512;28;20029;-74
2021/12/22 15:01:46;;;;;;;2.42;1.67;;;;;;;;;;5057069;28;20045;-77
2021/12/22 15:04:15;;;;;;;4.07;2.30;;;;;;;;;;5073873;28;20055;-75
2021/12/22 15:06:44;;;;;;;4.30;1.67;;;;;;;;;;5053646;28;20492;-74
2021/12/22 15:09:12;;;;;;;3.60;2.13;;;;;;;;;;5055889;28;20044;-74
2021/12/22 15:11:40;;;;;;;4.90;2.15;;;;;;;;;;5070755;28;20033;-76
2021/12/22 15:14:11;;;;;;;3.85;1.83;;;;;;;;;;5052137;28;20115;-76
2021/12/22 15:16:40;;;;;;;2.67;2.25;;;;;;;;;;5073552;28;20036;-74
2021/12/22 15:19:08;;;;;;;5.78;1.75;;;;;;;;;;5071716;28;20488;-74
2021/12/22 15:21:36;;;;;;;4.57;1.63;;;;;;;;;;5073366;28;20048;-74
2021/12/22 15:24:04;;;;;;;2.60;1.55;;;;;;;;;;5072821;28;20048;-75
2021/12/22 15:26:32;;;;;;;5.35;1.70;;;;;;;;;;5070346;28;20037;-75
2021/12/22 15:29:02;;;;;;;4.72;1.75;;;;;;;;;;5064464;28;20036;-74